KBAM/BAM METAR and TAF weather

Enter ICAO airport designator
Station Type Date Time Source
KBAM METAR 2022/12/10 01:55 UTC NOAA

KBAM 100155Z AUTO 07008KT 10SM SCT090 SCT110 02/M02 A3001 RMK AO1


Station Type Date Time Source
KBAM Decoded METAR 2022/12/10 01:55 UTC NOAA

Station name not available
Dec 09, 2022 - 08:55 PM EST / 2022.12.10 0155 UTC
Wind: from the ENE (070 degrees) at 9 MPH (8 KT):0
Visibility: 10 mile(s):0
Sky conditions: partly cloudy
Temperature: 35 F (2 C)
Windchill: 28 F (-2 C):1
Dew Point: 28 F (-2 C)
Relative Humidity: 74%
Pressure (altimeter): 30.01 in. Hg (1016 hPa)
ob: KBAM 100155Z AUTO 07008KT 10SM SCT090 SCT110 02/M02 A3001 RMK AO1
cycle: 2

Station Type Date Time Source
KBAM TAF 2022/12/09 18:22 UTC NOAA

TAF KBAM 091720Z 0918/1018 VRB06KT P6SM SCT050 OVC120
FM100700 16010KT P6SM BKN060 OVC110
FM101700 16010G20KT P6SM SCT050 OVC070

Example: see airport list